Time;durP1;ratioP1;P1;durP2;ratioP2;P2;SDS_P1;SDS_P2;PMS_P1;PMS_P2;Temp;Humidity;BMP_temperature;BMP_pressure;BME280_temperature;BME280_humidity;BME280_pressure;Samples;Min_cycle;Max_cycle;Signal;HPM_P1;HPM_P2
2022/12/18 00:01:19;;;;;;;1999.90;999.90;;;;;;;0.54;100.00;99231.16;5068532;28;20012;-83
2022/12/18 00:03:45;;;;;;;1999.90;999.90;;;;;;;0.55;100.00;99235.53;5066759;28;20035;-82
2022/12/18 00:06:11;;;;;;;1999.90;999.90;;;;;;;0.66;100.00;99236.81;5065688;28;20048;-82
2022/12/18 00:08:36;;;;;;;1999.90;999.90;;;;;;;0.60;100.00;99234.91;5067088;28;20046;-83
2022/12/18 00:11:07;;;;;;;1999.90;999.90;;;;;;;0.64;100.00;99239.69;5067781;28;20052;-83
2022/12/18 00:13:32;;;;;;;1999.90;999.90;;;;;;;0.74;100.00;99250.94;5068480;28;20024;-84
2022/12/18 00:16:06;;;;;;;1999.90;999.90;;;;;;;0.73;100.00;99256.50;5060979;28;20021;-87
2022/12/18 00:18:32;;;;;;;1999.90;999.90;;;;;;;0.65;100.00;99257.53;5062546;28;20025;-82
2022/12/18 00:21:00;;;;;;;1999.90;999.90;;;;;;;0.81;100.00;99257.19;5067932;28;20073;-83
2022/12/18 00:23:26;;;;;;;1999.90;999.90;;;;;;;0.96;100.00;99259.72;5064306;28;20017;-85
2022/12/18 00:25:51;;;;;;;1999.90;999.90;;;;;;;0.83;100.00;99257.81;5067815;28;20036;-84
2022/12/18 00:28:16;;;;;;;1999.90;999.90;;;;;;;0.81;100.00;99264.44;5074581;28;20030;-82
2022/12/18 00:30:42;;;;;;;1999.90;999.90;;;;;;;0.89;100.00;99266.94;5076650;28;20017;-88
2022/12/18 00:33:07;;;;;;;1999.90;999.90;;;;;;;0.90;100.00;99268.59;5076828;28;20021;-85
2022/12/18 00:35:33;;;;;;;1999.90;999.90;;;;;;;0.94;100.00;99277.94;5076385;28;20005;-85
2022/12/18 00:37:58;;;;;;;1999.90;999.90;;;;;;;0.96;100.00;99282.09;5076926;28;20013;-87
2022/12/18 00:40:23;;;;;;;1999.90;999.90;;;;;;;0.92;100.00;99278.13;5076369;28;20043;-84
2022/12/18 00:42:57;;;;;;;1999.90;999.90;;;;;;;0.87;100.00;99283.31;5076840;28;20001;-85
2022/12/18 00:45:28;;;;;;;1999.90;999.90;;;;;;;0.85;100.00;99289.91;5076520;28;20016;-84
2022/12/18 00:47:54;;;;;;;1999.90;999.90;;;;;;;0.84;100.00;99289.09;5076688;28;20077;-89
2022/12/18 00:50:20;;;;;;;1999.90;999.90;;;;;;;0.94;100.00;99284.16;5076169;28;20033;-87
2022/12/18 00:52:46;;;;;;;1999.90;999.90;;;;;;;0.85;100.00;99285.34;5075964;28;20021;-84
2022/12/18 00:55:12;;;;;;;1999.90;999.90;;;;;;;0.82;100.00;99280.38;5072284;28;20040;-85
2022/12/18 00:57:37;;;;;;;1999.90;999.90;;;;;;;0.65;100.00;99286.28;5061273;28;20025;-86
2022/12/18 01:00:04;;;;;;;1999.90;999.90;;;;;;;0.48;100.00;99278.53;5060856;28;20021;-87
2022/12/18 01:02:29;;;;;;;1999.90;999.90;;;;;;;0.36;100.00;99290.06;5062031;28;20063;-86
2022/12/18 01:04:55;;;;;;;1999.90;999.90;;;;;;;0.32;100.00;99278.84;5070910;28;20017;-82
2022/12/18 01:07:20;;;;;;;1999.90;999.90;;;;;;;0.27;100.00;99284.00;5072092;28;20017;-85
2022/12/18 01:09:45;;;;;;;1999.90;999.90;;;;;;;0.31;100.00;99285.28;5072812;28;20029;-87
2022/12/18 01:12:11;;;;;;;1999.90;999.90;;;;;;;0.18;100.00;99282.50;5072560;28;20049;-87
2022/12/18 01:14:37;;;;;;;1999.90;999.90;;;;;;;0.18;100.00;99292.41;5072549;28;20017;-85
2022/12/18 01:17:03;;;;;;;1999.90;999.90;;;;;;;0.17;100.00;99288.06;5071370;28;20036;-86
2022/12/18 01:19:29;;;;;;;1999.90;999.90;;;;;;;0.23;100.00;99288.09;5070878;28;20013;-87
2022/12/18 01:21:54;;;;;;;1999.90;999.90;;;;;;;0.13;100.00;99301.06;5071100;28;20010;-84
2022/12/18 01:24:19;;;;;;;1999.90;999.90;;;;;;;0.11;100.00;99302.28;5070686;28;20025;-84
2022/12/18 01:26:45;;;;;;;1999.90;999.90;;;;;;;0.16;100.00;99305.25;5072611;28;20017;-85
2022/12/18 01:29:10;;;;;;;1999.90;999.90;;;;;;;0.12;100.00;99314.72;5072102;28;20021;-86
2022/12/18 01:31:35;;;;;;;1999.90;999.90;;;;;;;0.09;100.00;99310.56;5066879;28;20017;-85
2022/12/18 01:34:02;;;;;;;1999.90;999.90;;;;;;;0.17;100.00;99310.41;5051140;28;20002;-86
2022/12/18 01:36:33;;;;;;;1999.90;999.90;;;;;;;0.08;100.00;99302.69;5051965;28;20022;-84
2022/12/18 01:39:04;;;;;;;1999.90;999.90;;;;;;;0.11;100.00;99313.88;5052580;28;20033;-86
2022/12/18 01:42:01;;;;;;;1999.90;999.90;;;;;;;0.07;100.00;99315.28;5052113;28;20112;-86
2022/12/18 01:44:45;;;;;;;1999.90;999.90;;;;;;;0.08;100.00;99300.81;5054194;28;20037;-82
2022/12/18 01:47:23;;;;;;;1999.90;999.90;;;;;;;0.14;100.00;99299.19;5053801;28;20079;-76
2022/12/18 01:49:49;;;;;;;1999.90;999.90;;;;;;;0.06;100.00;99304.75;5053061;28;20033;-86
2022/12/18 01:52:16;;;;;;;1999.90;999.90;;;;;;;0.08;100.00;99316.97;5055969;28;20072;-84
2022/12/18 01:54:42;;;;;;;1999.90;999.90;;;;;;;0.18;100.00;99309.38;5055982;28;20043;-85
2022/12/18 01:57:08;;;;;;;1999.90;999.90;;;;;;;0.24;100.00;99323.91;5054667;28;20022;-84
2022/12/18 01:59:36;;;;;;;1999.90;999.90;;;;;;;0.20;100.00;99328.00;5055829;28;20045;-85
2022/12/18 02:02:04;;;;;;;1999.90;999.90;;;;;;;0.17;100.00;99329.22;5088820;28;20009;-85
2022/12/18 02:04:29;;;;;;;1999.90;999.90;;;;;;;0.26;100.00;99340.69;5056140;28;20061;-87
2022/12/18 02:07:07;;;;;;;1999.90;999.90;;;;;;;0.22;100.00;99342.91;5088699;28;20029;-85
2022/12/18 02:09:41;;;;;;;1999.90;999.90;;;;;;;0.28;100.00;99335.94;5052975;28;20052;-84
2022/12/18 02:12:33;;;;;;;1999.90;999.90;;;;;;;0.35;100.00;99345.72;5055231;28;19998;-86
2022/12/18 02:15:09;;;;;;;1999.90;999.90;;;;;;;0.36;100.00;99349.25;5091026;28;20018;-87
2022/12/18 02:17:44;;;;;;;1999.90;999.90;;;;;;;0.39;100.00;99354.22;5057924;28;20021;-89
2022/12/18 02:20:32;;;;;;;1999.90;999.90;;;;;;;0.40;100.00;99361.28;5057233;28;20053;-85
2022/12/18 02:23:16;;;;;;;1999.90;999.90;;;;;;;0.34;100.00;99356.69;5057844;28;20021;-89
2022/12/18 02:26:10;;;;;;;1999.90;999.90;;;;;;;0.40;100.00;99366.66;5056183;28;20030;-86
2022/12/18 02:28:45;;;;;;;1999.90;999.90;;;;;;;0.28;100.00;99357.47;5057673;28;20016;-81
2022/12/18 02:31:16;;;;;;;1999.90;999.90;;;;;;;0.28;100.00;99360.16;5058147;28;20106;-86
2022/12/18 02:33:44;;;;;;;1999.90;999.90;;;;;;;0.25;100.00;99360.56;5057213;28;20038;-85
2022/12/18 02:36:12;;;;;;;1999.90;999.90;;;;;;;0.19;100.00;99361.34;5056076;28;20461;-88
2022/12/18 02:38:39;;;;;;;1999.90;999.90;;;;;;;0.08;100.00;99357.31;5056471;28;21000;-86
2022/12/18 02:41:05;;;;;;;1999.90;999.90;;;;;;;-0.05;100.00;99355.31;5056859;28;20048;-89
2022/12/18 02:43:31;;;;;;;1999.90;999.90;;;;;;;0.04;100.00;99361.38;5056875;28;20061;-88
2022/12/18 02:45:59;;;;;;;1999.90;999.90;;;;;;;0.11;100.00;99367.66;5088807;28;20093;-86
2022/12/18 02:48:33;;;;;;;1999.90;999.90;;;;;;;-0.04;100.00;99375.81;5056936;28;20032;-82
2022/12/18 02:51:23;;;;;;;1999.90;999.90;;;;;;;-0.01;100.00;99367.38;5056742;28;20064;-85
2022/12/18 02:53:58;;;;;;;1999.90;999.90;;;;;;;0.08;100.00;99367.22;5056286;28;20126;-85
2022/12/18 02:56:33;;;;;;;1999.90;999.90;;;;;;;0.08;100.00;99370.75;5056431;28;20013;-84
2022/12/18 02:59:09;;;;;;;1999.90;999.90;;;;;;;0.14;100.00;99371.81;5056382;28;20045;-87
2022/12/18 03:01:54;;;;;;;1999.90;999.90;;;;;;;0.19;100.00;99382.84;5057111;28;20017;-85
2022/12/18 03:04:54;;;;;;;1999.90;999.90;;;;;;;0.21;100.00;99391.56;5056327;28;20505;-88
2022/12/18 03:07:30;;;;;;;1999.90;999.90;;;;;;;0.03;100.00;99380.44;5053805;28;20041;-82
2022/12/18 03:09:57;;;;;;;1999.90;999.90;;;;;;;-0.02;100.00;99384.50;5053815;28;20113;-88
2022/12/18 03:12:31;;;;;;;1999.90;999.90;;;;;;;-0.09;100.00;99393.53;5053320;28;20026;-83
2022/12/18 03:15:14;;;;;;;1999.90;999.90;;;;;;;-0.04;100.00;99391.13;5052824;28;20025;-86
2022/12/18 03:17:45;;;;;;;1999.90;999.90;;;;;;;-0.09;100.00;99393.53;5053162;28;20040;-86
2022/12/18 03:20:16;;;;;;;1999.90;999.90;;;;;;;-0.15;100.00;99392.44;5055074;28;20030;-82
2022/12/18 03:22:47;;;;;;;1999.90;999.90;;;;;;;-0.16;100.00;99387.28;5054816;28;20025;-85
2022/12/18 03:25:14;;;;;;;1999.90;999.90;;;;;;;-0.22;100.00;99393.41;5086887;28;20037;-80
2022/12/18 03:27:47;;;;;;;1999.90;999.90;;;;;;;-0.29;100.00;99392.50;5052508;28;20026;-85
2022/12/18 03:30:14;;;;;;;1999.90;999.90;;;;;;;-0.38;100.00;99383.75;5052306;28;20375;-81
2022/12/18 03:32:57;;;;;;;1999.90;999.90;;;;;;;-0.43;100.00;99388.84;5053370;28;20093;-84
2022/12/18 03:35:28;;;;;;;1999.90;999.90;;;;;;;-0.48;100.00;99385.91;5054726;28;20018;-86
2022/12/18 03:37:54;;;;;;;1999.90;999.90;;;;;;;-0.49;100.00;99383.38;5054510;28;20081;-86
2022/12/18 03:40:27;;;;;;;1999.90;999.90;;;;;;;-0.51;100.00;99383.59;5055679;28;20026;-87
2022/12/18 03:43:02;;;;;;;1999.90;999.90;;;;;;;-0.58;100.00;99391.56;5056183;28;20013;-85
2022/12/18 03:45:36;;;;;;;1999.90;999.90;;;;;;;-0.63;100.00;99398.53;5055981;28;20029;-88
2022/12/18 03:48:09;;;;;;;1999.90;999.90;;;;;;;-0.72;100.00;99389.72;5054721;28;20026;-83
2022/12/18 03:50:46;;;;;;;1999.90;999.90;;;;;;;-0.66;100.00;99396.22;5053182;28;20025;-86
2022/12/18 03:53:28;;;;;;;1999.90;999.90;;;;;;;-0.77;100.00;99396.69;5054090;28;20014;-84
2022/12/18 03:55:56;;;;;;;1999.90;999.90;;;;;;;-0.82;100.00;99394.59;5055523;28;20068;-83
2022/12/18 03:58:25;;;;;;;1999.90;999.90;;;;;;;-0.80;100.00;99399.75;5055514;28;20501;-87
2022/12/18 04:00:55;;;;;;;1999.90;999.90;;;;;;;-0.81;100.00;99408.81;5061420;28;20044;-84
2022/12/18 04:03:22;;;;;;;1999.90;999.90;;;;;;;-0.92;100.00;99406.63;5076310;28;20005;-86
2022/12/18 04:05:51;;;;;;;1999.90;999.90;;;;;;;-1.02;100.00;99414.13;5074228;28;20044;-86
2022/12/18 04:08:16;;;;;;;1999.90;999.90;;;;;;;-1.05;100.00;99418.00;5074245;28;20055;-86
2022/12/18 04:10:42;;;;;;;1999.90;999.90;;;;;;;-1.13;100.00;99428.84;5074429;28;20025;-85
2022/12/18 04:13:08;;;;;;;1999.90;999.90;;;;;;;-1.11;100.00;99419.59;5074517;28;20016;-86
2022/12/18 04:15:36;;;;;;;1999.90;999.90;;;;;;;-1.05;100.00;99423.38;5073548;28;20017;-85
2022/12/18 04:18:01;;;;;;;1999.90;999.90;;;;;;;-1.11;100.00;99424.94;5073799;28;20035;-84
2022/12/18 04:20:27;;;;;;;1999.90;999.90;;;;;;;-1.15;100.00;99429.00;5073159;28;20052;-85
2022/12/18 04:22:52;;;;;;;1999.90;999.90;;;;;;;-1.23;100.00;99421.06;5073914;28;20033;-84
2022/12/18 04:25:18;;;;;;;1999.90;999.90;;;;;;;-1.25;100.00;99436.50;5073417;28;20035;-85
2022/12/18 04:27:43;;;;;;;1999.90;999.90;;;;;;;-1.26;100.00;99442.91;5073465;28;20029;-84
2022/12/18 04:30:09;;;;;;;1999.90;999.90;;;;;;;-1.30;100.00;99433.53;5073585;28;20016;-88
2022/12/18 04:32:35;;;;;;;1999.90;999.90;;;;;;;-1.33;100.00;99435.75;5073644;28;20044;-85
2022/12/18 04:35:00;;;;;;;1999.90;999.90;;;;;;;-1.38;100.00;99438.97;5073783;28;20029;-85
2022/12/18 04:37:26;;;;;;;1999.90;999.90;;;;;;;-1.26;100.00;99448.28;5073824;28;20017;-86
2022/12/18 04:39:51;;;;;;;1999.90;999.90;;;;;;;-1.18;100.00;99439.28;5074588;28;20021;-85
2022/12/18 04:42:16;;;;;;;1999.90;999.90;;;;;;;-1.20;100.00;99442.16;5073940;28;20015;-86
2022/12/18 04:44:41;;;;;;;1999.90;999.90;;;;;;;-1.19;100.00;99448.38;5073376;28;20009;-87
2022/12/18 04:47:07;;;;;;;1999.90;999.90;;;;;;;-1.21;100.00;99445.84;5074021;28;20001;-86
2022/12/18 04:49:32;;;;;;;1999.90;999.90;;;;;;;-1.27;100.00;99462.69;5073084;28;20020;-86
2022/12/18 04:51:58;;;;;;;1999.90;999.90;;;;;;;-1.23;100.00;99468.53;5074137;28;20619;-86
2022/12/18 04:54:23;;;;;;;1999.90;999.90;;;;;;;-1.26;100.00;99464.38;5073915;28;20087;-83
2022/12/18 04:56:48;;;;;;;1999.90;999.90;;;;;;;-1.22;100.00;99468.34;5074319;28;20028;-85
2022/12/18 04:59:14;;;;;;;1999.90;999.90;;;;;;;-1.28;100.00;99460.16;5073976;28;20005;-83
2022/12/18 05:01:39;;;;;;;1999.90;999.90;;;;;;;-1.15;100.00;99471.13;5073605;28;20012;-82
2022/12/18 05:04:05;;;;;;;1999.90;999.90;;;;;;;-1.13;100.00;99483.34;5075982;28;20037;-88
2022/12/18 05:06:30;;;;;;;1999.90;999.90;;;;;;;-1.01;100.00;99499.00;5075480;28;20105;-84
2022/12/18 05:08:55;;;;;;;1999.90;999.90;;;;;;;-0.91;100.00;99495.06;5074491;28;20108;-85
2022/12/18 05:11:21;;;;;;;1999.90;999.90;;;;;;;-0.81;100.00;99497.44;5075109;28;19996;-84
2022/12/18 05:13:46;;;;;;;1999.90;999.90;;;;;;;-1.02;100.00;99510.75;5074490;28;20036;-86
2022/12/18 05:16:13;;;;;;;1999.90;999.90;;;;;;;-0.92;100.00;99503.28;5075104;28;20088;-86
2022/12/18 05:18:38;;;;;;;1999.90;999.90;;;;;;;-0.95;100.00;99515.22;5071631;28;20105;-84
2022/12/18 05:21:04;;;;;;;1999.90;999.90;;;;;;;-1.00;100.00;99509.56;5067671;28;20029;-84
2022/12/18 05:23:30;;;;;;;1999.90;999.90;;;;;;;-0.90;100.00;99506.59;5066710;28;20024;-83
2022/12/18 05:25:57;;;;;;;1999.90;999.90;;;;;;;-0.83;100.00;99503.00;5062743;28;20333;-83
2022/12/18 05:28:24;;;;;;;1999.90;999.90;;;;;;;-0.86;100.00;99499.84;5061950;28;20021;-85
2022/12/18 05:30:56;;;;;;;1999.90;999.90;;;;;;;-0.85;100.00;99499.69;5069113;28;20397;-83
2022/12/18 05:33:24;;;;;;;1999.90;999.90;;;;;;;-0.79;100.00;99504.31;5077737;28;20021;-84
2022/12/18 05:35:57;;;;;;;1999.90;999.90;;;;;;;-0.53;100.00;99513.78;5072830;28;20047;-84
2022/12/18 05:38:24;;;;;;;1999.90;999.90;;;;;;;-0.56;100.00;99504.19;5070724;28;20035;-83
2022/12/18 05:40:51;;;;;;;1999.90;999.90;;;;;;;-0.54;100.00;99510.25;5074076;28;20025;-86
2022/12/18 05:43:17;;;;;;;1999.90;999.90;;;;;;;-0.50;100.00;99508.03;5076962;28;20009;-85
2022/12/18 05:45:42;;;;;;;1999.90;999.90;;;;;;;-0.49;100.00;99510.50;5076715;28;20025;-83
2022/12/18 05:48:11;;;;;;;1999.90;999.90;;;;;;;-0.63;100.00;99514.03;5076532;28;20064;-87
2022/12/18 05:50:38;;;;;;;1999.90;999.90;;;;;;;-0.67;100.00;99518.94;5076681;28;20021;-86
2022/12/18 05:53:05;;;;;;;1999.90;999.90;;;;;;;-0.80;100.00;99512.53;5074148;28;20124;-85
2022/12/18 05:55:35;;;;;;;1999.90;999.90;;;;;;;-1.00;100.00;99522.16;5074518;28;20028;-80
2022/12/18 05:58:01;;;;;;;1999.90;999.90;;;;;;;-0.93;100.00;99517.72;5075149;28;20055;-85
2022/12/18 06:00:26;;;;;;;1999.90;999.90;;;;;;;-0.72;100.00;99528.59;5073908;28;20147;-86
2022/12/18 06:02:52;;;;;;;1999.90;999.90;;;;;;;-0.80;100.00;99528.66;5074407;28;20055;-83
2022/12/18 06:05:17;;;;;;;1999.90;999.90;;;;;;;-0.88;100.00;99537.66;5055572;28;20041;-86
2022/12/18 06:07:43;;;;;;;1999.90;999.90;;;;;;;-0.89;100.00;99540.50;5057908;28;20029;-87
2022/12/18 06:10:08;;;;;;;1999.90;999.90;;;;;;;-0.83;100.00;99539.75;5055383;28;20060;-85
2022/12/18 06:12:33;;;;;;;1999.90;999.90;;;;;;;-1.01;100.00;99539.28;5053748;28;20025;-85
2022/12/18 06:15:00;;;;;;;1999.90;999.90;;;;;;;-0.89;100.00;99553.94;5073736;28;20020;-87
2022/12/18 06:17:30;;;;;;;1999.90;999.90;;;;;;;-0.89;100.00;99549.41;5074479;28;20013;-87
2022/12/18 06:19:55;;;;;;;1999.90;999.90;;;;;;;-0.90;100.00;99550.41;5076486;28;20029;-85
2022/12/18 06:22:21;;;;;;;1999.90;999.90;;;;;;;-0.86;100.00;99545.50;5076032;28;20033;-85
2022/12/18 06:24:46;;;;;;;1999.90;999.90;;;;;;;-0.98;100.00;99546.97;5074542;28;20025;-85
2022/12/18 06:27:11;;;;;;;1999.90;999.90;;;;;;;-1.08;100.00;99553.44;5070126;28;20021;-84
2022/12/18 06:29:36;;;;;;;1999.90;999.90;;;;;;;-1.14;100.00;99546.09;5072005;28;20021;-86
2022/12/18 06:32:02;;;;;;;1999.90;999.90;;;;;;;-1.08;100.00;99547.22;5073211;28;20021;-81
2022/12/18 06:34:27;;;;;;;1999.90;999.90;;;;;;;-1.00;100.00;99541.78;5074728;28;20020;-84
2022/12/18 06:36:53;;;;;;;1999.90;999.90;;;;;;;-1.11;100.00;99547.59;5074235;28;20017;-85
2022/12/18 06:39:18;;;;;;;1999.90;999.90;;;;;;;-1.22;100.00;99559.56;5072858;28;20021;-85
2022/12/18 06:41:43;;;;;;;1999.90;999.90;;;;;;;-1.25;100.00;99559.09;5070935;28;20029;-84
2022/12/18 06:44:08;;;;;;;1999.90;999.90;;;;;;;-1.24;100.00;99553.56;5070304;28;20037;-84
2022/12/18 06:46:34;;;;;;;1999.90;999.90;;;;;;;-1.24;100.00;99563.47;5069824;28;20071;-84
2022/12/18 06:48:59;;;;;;;1999.90;999.90;;;;;;;-1.25;100.00;99567.16;5071767;28;20025;-83
2022/12/18 06:51:25;;;;;;;1999.90;999.90;;;;;;;-1.20;100.00;99570.16;5071200;28;20020;-84
2022/12/18 06:53:50;;;;;;;1999.90;999.90;;;;;;;-1.13;100.00;99571.91;5071374;28;20057;-84
2022/12/18 06:56:15;;;;;;;1999.90;999.90;;;;;;;-1.25;100.00;99577.88;5072141;28;20028;-84
2022/12/18 06:58:41;;;;;;;1999.90;999.90;;;;;;;-1.19;100.00;99587.94;5062793;28;20022;-82
2022/12/18 07:01:09;;;;;;;1999.90;999.90;;;;;;;-1.28;100.00;99581.78;5051028;28;20025;-83
2022/12/18 07:03:35;;;;;;;1999.90;999.90;;;;;;;-1.22;100.00;99589.09;5072400;28;20081;-84
2022/12/18 07:06:01;;;;;;;1999.90;999.90;;;;;;;-1.12;100.00;99587.00;5072325;28;20140;-87
2022/12/18 07:08:26;;;;;;;1999.90;999.90;;;;;;;-1.03;100.00;99600.38;5073009;28;20020;-84
2022/12/18 07:10:53;;;;;;;1999.90;999.90;;;;;;;-1.02;100.00;99592.13;5073883;28;20029;-83
2022/12/18 07:13:19;;;;;;;1999.90;999.90;;;;;;;-0.92;100.00;99594.56;5072715;28;20029;-86
2022/12/18 07:15:44;;;;;;;1999.90;999.90;;;;;;;-0.87;100.00;99595.69;5071316;28;20021;-84
2022/12/18 07:18:10;;;;;;;1999.90;999.90;;;;;;;-0.71;100.00;99600.06;5065865;28;20416;-84
2022/12/18 07:20:35;;;;;;;1999.90;999.90;;;;;;;-0.80;100.00;99593.94;5069368;28;20028;-82
2022/12/18 07:23:05;;;;;;;1999.90;999.90;;;;;;;-0.62;100.00;99602.50;5070807;28;20036;-84
2022/12/18 07:25:36;;;;;;;1999.90;999.90;;;;;;;-0.72;100.00;99601.91;5068524;28;20029;-89
2022/12/18 07:28:03;;;;;;;1999.90;999.90;;;;;;;-0.64;100.00;99620.66;5064342;28;20059;-82
2022/12/18 07:30:28;;;;;;;1999.90;999.90;;;;;;;-0.64;100.00;99627.88;5070186;28;20021;-85
2022/12/18 07:32:53;;;;;;;1999.90;999.90;;;;;;;-0.65;100.00;99628.88;5073017;28;20032;-85
2022/12/18 07:35:19;;;;;;;1999.90;999.90;;;;;;;-0.51;100.00;99640.69;5073261;28;20051;-85
2022/12/18 07:37:44;;;;;;;1999.90;999.90;;;;;;;-0.53;100.00;99640.84;5073420;28;20017;-88
2022/12/18 07:40:10;;;;;;;1999.90;999.90;;;;;;;-0.58;100.00;99648.63;5074351;28;20031;-86
2022/12/18 07:42:36;;;;;;;1999.90;999.90;;;;;;;-0.49;100.00;99639.47;5073185;28;20730;-81
2022/12/18 07:45:03;;;;;;;1999.90;999.90;;;;;;;-0.36;100.00;99647.75;5074710;28;20033;-86
2022/12/18 07:47:32;;;;;;;1999.90;999.90;;;;;;;-0.38;100.00;99646.28;5073946;28;20021;-83
2022/12/18 07:49:57;;;;;;;1999.90;999.90;;;;;;;-0.14;100.00;99648.69;5071520;28;20005;-84
2022/12/18 07:52:23;;;;;;;1999.90;999.90;;;;;;;0.48;100.00;99651.78;5071527;28;20028;-86
2022/12/18 07:54:49;;;;;;;1999.90;999.90;;;;;;;0.44;100.00;99663.94;5071669;28;20036;-81
2022/12/18 07:57:16;;;;;;;1999.90;999.90;;;;;;;0.63;100.00;99679.50;5054209;28;20025;-85
2022/12/18 07:59:41;;;;;;;1999.90;999.90;;;;;;;1.33;100.00;99670.72;5053383;28;20085;-82
2022/12/18 08:02:06;;;;;;;1999.90;999.90;;;;;;;1.00;100.00;99675.78;5050104;28;20388;-81
2022/12/18 08:04:32;;;;;;;1999.90;999.90;;;;;;;0.82;100.00;99681.59;5051476;28;20081;-86
2022/12/18 08:06:57;;;;;;;1999.90;999.90;;;;;;;0.77;100.00;99681.34;5051768;28;20096;-86
2022/12/18 08:09:22;;;;;;;1999.90;999.90;;;;;;;0.80;100.00;99689.03;5051229;28;20057;-84
2022/12/18 08:11:47;;;;;;;1999.90;999.90;;;;;;;0.74;100.00;99692.50;5051413;28;20036;-85
2022/12/18 08:14:14;;;;;;;1999.90;999.90;;;;;;;0.81;100.00;99698.78;5051490;28;20029;-84
2022/12/18 08:16:39;;;;;;;1999.90;999.90;;;;;;;0.98;100.00;99700.22;5050920;28;20040;-83
2022/12/18 08:19:05;;;;;;;1999.90;999.90;;;;;;;1.15;100.00;99698.13;5051400;28;20041;-85
2022/12/18 08:21:31;;;;;;;1999.90;999.90;;;;;;;1.24;100.00;99704.19;5053138;28;20029;-84
2022/12/18 08:23:59;;;;;;;1999.90;999.90;;;;;;;1.51;100.00;99703.41;5056216;28;20021;-84
2022/12/18 08:26:26;;;;;;;1999.90;999.90;;;;;;;1.82;100.00;99698.47;5071988;28;20043;-86
2022/12/18 08:28:54;;;;;;;1999.90;999.90;;;;;;;1.94;100.00;99705.00;5073327;28;20025;-82
2022/12/18 08:31:20;;;;;;;1999.90;999.90;;;;;;;3.01;100.00;99692.66;5072781;28;20035;-84
2022/12/18 08:33:49;;;;;;;1999.90;999.90;;;;;;;4.98;100.00;99700.56;5067094;28;20033;-87
2022/12/18 08:36:14;;;;;;;1999.90;999.90;;;;;;;6.45;100.00;99701.72;5055886;28;20025;-85
2022/12/18 08:38:39;;;;;;;1999.90;999.90;;;;;;;7.91;100.00;99709.56;5065951;28;20048;-84
2022/12/18 08:41:07;;;;;;;1999.90;999.90;;;;;;;8.55;97.87;99706.75;5056440;28;20026;-85
2022/12/18 08:46:18;;;;;;;1999.90;999.90;;;;;;;9.67;90.30;99718.88;5033805;28;20043;-75
2022/12/18 08:48:53;;;;;;;1999.90;999.90;;;;;;;10.25;85.52;99722.31;5058693;28;20058;-84
2022/12/18 08:51:19;;;;;;;1999.90;999.90;;;;;;;10.66;82.79;99717.19;5069696;28;20020;-89
2022/12/18 08:53:44;;;;;;;1999.90;999.90;;;;;;;10.40;82.17;99726.09;5077596;28;20025;-84
2022/12/18 08:56:11;;;;;;;1999.90;999.90;;;;;;;10.12;79.31;99731.63;5076055;28;20024;-82
2022/12/18 08:58:36;;;;;;;1999.90;999.90;;;;;;;9.45;80.15;99742.50;5077306;28;20025;-87
2022/12/18 09:01:03;;;;;;;1999.90;999.90;;;;;;;9.26;80.03;99741.00;5075589;28;20039;-86
2022/12/18 09:03:28;;;;;;;1999.90;999.90;;;;;;;10.27;74.69;99742.88;5072709;28;20084;-87
2022/12/18 09:05:53;;;;;;;1999.90;999.90;;;;;;;9.98;72.61;99741.25;5068760;28;20049;-83
2022/12/18 09:08:18;;;;;;;1999.90;999.90;;;;;;;9.68;69.96;99723.25;5071401;28;20036;-82
2022/12/18 09:10:45;;;;;;;1999.90;999.90;;;;;;;9.80;70.59;99747.78;5074706;28;20130;-86
2022/12/18 09:13:12;;;;;;;1999.90;999.90;;;;;;;9.37;71.93;99748.31;5069553;28;20015;-83
2022/12/18 09:15:46;;;;;;;1999.90;999.90;;;;;;;8.58;76.44;99743.66;5067751;28;19993;-80
2022/12/18 09:18:12;;;;;;;1999.90;999.90;;;;;;;9.24;73.64;99747.78;5067882;28;20025;-83
2022/12/18 09:20:37;;;;;;;1999.90;999.90;;;;;;;9.49;70.62;99754.56;5071178;28;20072;-85
2022/12/18 09:23:03;;;;;;;1999.90;999.90;;;;;;;10.27;65.67;99753.81;5068114;28;20040;-81
2022/12/18 09:25:33;;;;;;;1999.90;999.90;;;;;;;8.70;70.65;99746.38;5067926;28;20032;-89
2022/12/18 09:28:19;;;;;;;1999.90;999.90;;;;;;;8.88;70.70;99748.94;5070501;28;20040;-84
2022/12/18 09:30:46;;;;;;;;;;;;;;;8.69;73.69;99756.44;5066845;28;20040;-78
2022/12/18 09:33:16;;;;;;;1999.90;999.90;;;;;;;8.20;72.74;99749.53;5064446;28;19959;-88
2022/12/18 09:35:43;;;;;;;1999.90;999.90;;;;;;;7.57;78.58;99756.63;5062095;28;20059;-93
2022/12/18 09:38:12;;;;;;;1999.90;999.90;;;;;;;7.64;81.26;99746.47;5058664;28;20146;-89
2022/12/18 09:40:47;;;;;;;1999.90;999.90;;;;;;;8.93;73.92;99749.03;5058909;28;20100;-85
2022/12/18 09:43:24;;;;;;;1999.90;999.90;;;;;;;7.81;75.79;99748.28;5054411;28;20413;-86
2022/12/18 09:45:54;;;;;;;1999.90;999.90;;;;;;;8.85;74.15;99749.41;5041161;28;20026;-85
2022/12/18 09:48:30;;;;;;;1999.90;999.90;;;;;;;8.81;73.19;99751.78;5052246;28;20021;-84
2022/12/18 09:51:02;;;;;;;1999.90;999.90;;;;;;;9.54;70.34;99751.13;5064997;28;20363;-79
2022/12/18 09:53:32;;;;;;;1999.90;999.90;;;;;;;9.67;67.39;99762.59;5055946;28;20021;-83
2022/12/18 09:56:00;;;;;;;1999.90;999.90;;;;;;;9.74;64.58;99758.88;5061931;28;20067;-88
2022/12/18 09:58:39;;;;;;;1999.90;999.90;;;;;;;10.15;63.16;99761.25;5064633;28;20021;-80
2022/12/18 10:01:14;;;;;;;1999.90;999.90;;;;;;;7.36;71.09;99750.59;5063814;28;20119;-84
2022/12/18 10:03:39;;;;;;;1999.90;999.90;;;;;;;8.44;68.85;99753.13;5065145;28;20025;-81
2022/12/18 10:06:18;;;;;;;1999.90;999.90;;;;;;;8.82;64.76;99750.75;5054796;28;20564;-87
2022/12/18 10:08:53;;;;;;;1999.90;999.90;;;;;;;7.81;70.04;99752.88;5059616;28;20052;-86
2022/12/18 10:11:46;;;;;;;1999.90;999.90;;;;;;;6.25;76.89;99749.19;5063005;28;20028;-85
2022/12/18 10:14:50;;;;;;;1999.90;999.90;;;;;;;6.60;77.39;99744.84;5059530;28;20052;-88
2022/12/18 10:17:44;;;;;;;1999.90;999.90;;;;;;;7.07;77.32;99740.53;5039671;28;20126;-85
2022/12/18 10:20:20;;;;;;;1999.90;999.90;;;;;;;6.67;77.09;99744.78;5067452;28;20097;-84
2022/12/18 10:22:54;;;;;;;1999.90;999.90;;;;;;;4.75;83.51;99738.19;5071491;28;20021;-86
2022/12/18 10:25:38;;;;;;;1999.90;999.90;;;;;;;5.09;91.22;99735.13;5068301;28;20033;-86
2022/12/18 10:28:13;;;;;;;1999.90;999.90;;;;;;;6.39;83.03;99732.50;5070719;28;20052;-81
2022/12/18 10:30:41;;;;;;;1999.90;999.90;;;;;;;7.32;75.87;99722.19;5072251;28;20025;-82
2022/12/18 10:33:13;;;;;;;1999.90;999.90;;;;;;;6.72;81.01;99728.63;5069772;28;20075;-87
2022/12/18 10:35:41;;;;;;;1999.90;999.90;;;;;;;8.24;71.35;99731.63;5068312;28;20029;-84
2022/12/18 10:38:22;;;;;;;1999.90;999.90;;;;;;;7.60;74.51;99716.13;5070472;28;20047;-88
2022/12/18 10:40:51;;;;;;;1999.90;999.90;;;;;;;7.48;72.33;99718.84;5066039;28;20055;-85
2022/12/18 10:43:22;;;;;;;1999.90;999.90;;;;;;;6.74;74.05;99712.88;5069654;28;20017;-88
2022/12/18 10:46:08;;;;;;;1999.90;999.90;;;;;;;5.44;79.01;99713.88;5068619;28;20029;-80
2022/12/18 10:48:47;;;;;;;1999.90;999.90;;;;;;;4.66;77.55;99721.34;5069325;28;20080;-87
2022/12/18 10:51:25;;;;;;;1999.90;999.90;;;;;;;5.20;78.59;99715.44;5070051;28;20033;-86
2022/12/18 10:53:57;;;;;;;1999.90;999.90;;;;;;;4.49;76.44;99724.72;5058176;28;20041;-83
2022/12/18 10:56:24;;;;;;;1999.90;999.90;;;;;;;4.20;77.49;99723.31;5054634;28;20040;-73
2022/12/18 10:59:03;;;;;;;1999.90;999.90;;;;;;;3.63;80.19;99727.50;5053527;28;20607;-75
2022/12/18 11:01:50;;;;;;;1999.90;999.90;;;;;;;3.24;81.60;99700.41;5055375;28;20456;-73
2022/12/18 11:04:27;;;;;;;1999.90;999.90;;;;;;;3.21;82.77;99701.66;5053339;28;20017;-75